Time;durP1;ratioP1;P1;durP2;ratioP2;P2;SDS_P1;SDS_P2;PMS_P1;PMS_P2;Temp;Humidity;BMP_temperature;BMP_pressure;BME280_temperature;BME280_humidity;BME280_pressure;Samples;Min_cycle;Max_cycle;Signal;HPM_P1;HPM_P2
2022/04/18 00:04:04;;;;;;;;;;;11.00;36.90;;;9.55;39.97;102043.47;8363270;28;20007;-82
2022/04/18 00:08:26;;;;;;;;;;;11.00;36.90;;;9.43;40.01;102020.38;8353552;28;19921;-82
2022/04/18 00:12:48;;;;;;;;;;;10.80;36.90;;;9.42;40.10;102018.66;8369101;28;20008;-82
2022/04/18 00:17:10;;;;;;;;;;;10.80;37.00;;;9.27;40.14;101999.13;8360192;28;20015;-81
2022/04/18 00:21:31;;;;;;;;;;;10.70;37.00;;;9.03;39.97;101969.41;8364375;28;20011;-81
2022/04/18 00:25:53;;;;;;;;;;;10.80;37.10;;;9.14;40.26;101995.16;8362023;28;20003;-82
2022/04/18 00:30:15;;;;;;;;;;;10.70;37.00;;;8.99;40.33;101983.41;8363325;28;19927;-82
2022/04/18 00:34:37;;;;;;;;;;;10.60;37.10;;;9.10;40.15;102012.66;8348785;28;20015;-82
2022/04/18 00:38:59;;;;;;;;;;;10.60;37.10;;;8.90;40.31;101981.09;8348816;28;20357;-82
2022/04/18 00:43:40;;;;;;;;;;;10.50;37.10;;;8.83;40.55;101980.38;8351276;28;20007;-82
2022/04/18 00:48:03;;;;;;;;;;;10.40;37.00;;;8.86;40.37;101999.41;8355907;28;20342;-81
2022/04/18 00:52:26;;;;;;;;;;;10.30;37.10;;;8.68;40.59;101976.47;8363789;28;20330;-82
2022/04/18 00:56:48;;;;;;;;;;;10.20;37.10;;;8.73;40.19;101987.59;8334262;28;20361;-82
2022/04/18 01:01:10;;;;;;;;;;;10.20;37.10;;;8.63;40.04;101976.56;8352605;28;20024;-82
2022/04/18 01:05:32;;;;;;;;;;;10.00;37.10;;;8.57;40.55;101981.09;8352612;28;20000;-82
2022/04/18 01:09:54;;;;;;;;;;;10.00;37.20;;;8.46;40.79;101957.13;8351170;28;20329;-82
2022/04/18 01:14:16;;;;;;;;;;;10.00;37.20;;;8.38;40.58;101962.47;8346344;28;20673;-82
2022/04/18 01:18:48;;;;;;;;;;;10.00;37.20;;;8.42;40.78;101966.72;8351487;28;20015;-82
2022/04/18 01:23:33;;;;;;;;;;;9.90;37.20;;;8.24;40.78;101933.38;8327363;28;20378;-81
2022/04/18 01:32:44;;;;;;;;;;;9.80;37.30;;;8.25;40.87;101961.94;8342418;28;20349;-82
2022/04/18 01:37:06;;;;;;;;;;;9.80;37.30;;;8.10;40.82;101938.91;8354701;28;20011;-82
2022/04/18 01:41:28;;;;;;;;;;;9.50;37.50;;;7.96;41.08;101921.88;8346797;28;20426;-81
2022/04/18 01:45:50;;;;;;;;;;;9.70;37.40;;;8.05;41.12;101927.78;8350960;28;20011;-82
2022/04/18 01:50:20;;;;;;;;;;;9.60;37.30;;;7.98;40.98;101934.88;8354211;28;19921;-82
2022/04/18 01:54:42;;;;;;;;;;;9.50;37.30;;;7.77;41.04;101907.63;8338677;28;20348;-82
2022/04/18 01:59:08;;;;;;;;;;;9.40;37.30;;;7.75;40.58;101922.44;8353296;28;20007;-82
2022/04/18 02:03:30;;;;;;;;;;;9.30;37.30;;;7.65;40.72;101926.16;8339753;28;20015;-82
2022/04/18 02:07:52;;;;;;;;;;;9.20;37.40;;;7.57;40.98;101922.88;8347757;28;19999;-81
2022/04/18 02:12:15;;;;;;;;;;;9.20;37.40;;;7.51;40.87;101914.31;8333282;28;20008;-82
2022/04/18 02:16:50;;;;;;;;;;;9.00;37.40;;;7.51;40.61;101927.31;8325484;28;20041;-82
2022/04/18 02:21:12;;;;;;;;;;;9.00;37.50;;;7.41;40.97;101922.38;8329107;28;20440;-82
2022/04/18 02:25:34;;;;;;;;;;;8.90;37.40;;;7.03;40.94;101875.56;8347935;28;20003;-82
2022/04/18 02:30:04;;;;;;;;;;;8.80;37.40;;;7.18;40.94;101915.06;8347568;28;19925;-82
2022/04/18 02:34:26;;;;;;;;;;;8.80;37.40;;;7.13;40.82;101911.72;8346267;28;20003;-82
2022/04/18 02:38:49;;;;;;;;;;;8.70;37.50;;;7.02;41.34;101893.78;8331065;28;20024;-82
2022/04/18 02:43:12;;;;;;;;;;;8.50;37.50;;;7.02;41.47;101909.34;8318410;28;20012;-82
2022/04/18 02:47:36;;;;;;;;;;;8.60;37.60;;;6.99;40.85;101899.88;8326072;28;20011;-82
2022/04/18 02:51:59;;;;;;;;;;;8.60;37.60;;;6.95;41.44;101898.25;8333818;28;20012;-82
2022/04/18 02:56:21;;;;;;;;;;;8.50;37.70;;;6.94;41.19;101893.97;8352619;28;19999;-82
2022/04/18 03:00:45;;;;;;;;;;;8.80;37.90;;;6.80;41.60;101870.00;8350125;28;19916;-82
2022/04/18 03:05:09;;;;;;;;;;;8.50;37.80;;;6.92;40.88;101887.94;8365180;28;20035;-82
2022/04/18 03:09:31;;;;;;;;;;;8.50;37.80;;;6.92;41.31;101887.94;8328024;28;19943;-82
2022/04/18 03:13:54;;;;;;;;;;;8.50;37.80;;;6.72;40.97;101862.38;8329527;28;20472;-82
2022/04/18 03:18:28;;;;;;;;;;;8.50;37.80;;;6.80;41.59;101883.00;8348454;28;19917;-81
2022/04/18 03:22:50;;;;;;;;;;;8.40;37.90;;;6.60;41.33;101854.84;8351597;28;20007;-82
2022/04/18 03:27:25;;;;;;;;;;;8.40;37.90;;;6.72;41.40;101890.06;8351434;28;20000;-81
2022/04/18 03:31:49;;;;;;;;;;;8.30;37.80;;;6.68;41.44;101883.25;8351726;28;20452;-82
2022/04/18 03:40:59;;;;;;;;;;;8.20;37.90;;;6.41;41.29;101838.81;8359099;28;20452;-82
2022/04/18 03:45:21;;;;;;;;;;;8.20;37.90;;;6.38;41.59;101828.50;8349253;28;20460;-82
2022/04/18 03:49:43;;;;;;;;;;;8.10;37.90;;;6.51;41.32;101866.28;8351436;28;19920;-81
2022/04/18 03:54:05;;;;;;;;;;;8.10;37.90;;;6.47;41.53;101867.22;8362989;28;20436;-81
2022/04/18 03:58:29;;;;;;;;;;;8.10;38.00;;;6.46;41.39;101872.44;8356152;28;20425;-81
2022/04/18 04:02:52;;;;;;;;;;;8.00;37.90;;;6.29;41.34;101844.22;8354973;28;20330;-81
2022/04/18 04:07:20;;;;;;;;;;;8.00;37.90;;;6.18;41.50;101842.72;8349447;28;20126;-81
2022/04/18 04:11:52;;;;;;;;;;;8.00;38.00;;;6.35;41.42;101878.69;8354032;28;19927;-81
2022/04/18 04:16:14;;;;;;;;;;;8.00;38.00;;;6.22;41.71;101847.84;8350837;28;19998;-81
2022/04/18 04:20:36;;;;;;;;;;;8.00;38.10;;;6.24;42.04;101859.91;8349279;28;19999;-81
2022/04/18 04:24:58;;;;;;;;;;;7.90;38.00;;;5.95;42.02;101813.75;8345300;28;19923;-81
2022/04/18 04:29:25;;;;;;;;;;;7.90;38.10;;;6.23;41.83;101865.09;8345690;28;20293;-81
2022/04/18 04:33:49;;;;;;;;;;;7.70;38.00;;;6.13;42.06;101847.13;8362703;28;20012;-81
2022/04/18 04:38:12;;;;;;;;;;;7.80;38.10;;;6.00;42.06;101827.50;8348438;28;20461;-81
2022/04/18 04:42:40;;;;;;;;;;;7.80;38.20;;;6.13;41.52;101854.91;8357719;28;20007;-81
2022/04/18 04:47:03;;;;;;;;;;;7.80;38.20;;;5.99;41.61;101825.75;8343069;28;20399;-81
2022/04/18 04:51:27;;;;;;;;;;;7.80;38.20;;;5.89;41.99;101819.03;8351142;28;19927;-81
2022/04/18 04:55:49;;;;;;;;;;;7.80;38.30;;;6.06;41.72;101855.88;8347103;28;20460;-81
2022/04/18 05:00:12;;;;;;;;;;;7.70;38.30;;;5.93;41.72;101828.44;8339371;28;20432;-81
2022/04/18 05:04:56;;;;;;;;;;;7.70;38.30;;;5.97;41.76;101832.75;8365554;28;20111;-81
2022/04/18 05:09:18;;;;;;;;;;;7.70;38.30;;;5.93;42.35;101826.72;8337221;28;19927;-81
2022/04/18 05:13:40;;;;;;;;;;;7.70;38.40;;;5.95;42.34;101829.31;8331771;28;20007;-81
2022/04/18 05:18:02;;;;;;;;;;;7.70;38.40;;;6.03;42.21;101849.91;8334481;28;20011;-81
2022/04/18 05:22:25;;;;;;;;;;;7.70;38.50;;;5.97;41.97;101843.97;8346935;28;19976;-81
2022/04/18 05:26:47;;;;;;;;;;;7.70;38.60;;;5.96;42.18;101826.66;8346141;28;20011;-81
2022/04/18 05:31:09;;;;;;;;;;;7.60;38.50;;;5.86;42.03;101811.28;8338004;28;19927;-81
2022/04/18 05:35:33;;;;;;;;;;;7.70;38.70;;;5.95;42.25;101826.72;8345272;28;20027;-81
2022/04/18 05:39:55;;;;;;;;;;;7.70;38.70;;;6.04;42.00;101838.66;8339594;28;20403;-81
2022/04/18 05:44:18;;;;;;;;;;;7.80;38.90;;;6.13;42.55;101846.25;8346690;28;20011;-81
2022/04/18 05:48:48;;;;;;;;;;;7.80;38.90;;;6.15;42.05;101836.72;8338891;28;19932;-81
2022/04/18 05:53:11;;;;;;;;;;;7.90;39.20;;;6.23;42.65;101855.56;8352079;28;20007;-81
2022/04/18 05:57:52;;;;;;;;;;;7.90;39.40;;;6.16;42.37;101834.09;8359276;28;20477;-81
2022/04/18 06:02:15;;;;;;;;;;;8.00;39.40;;;6.48;42.96;101849.91;8343684;28;20011;-82
2022/04/18 06:06:46;;;;;;;;;;;8.10;39.50;;;6.67;42.79;101852.97;8332100;28;20015;-82
2022/04/18 06:11:11;;;;;;;;;;;8.30;40.20;;;6.79;43.24;101838.00;8327222;28;19927;-83
2022/04/18 06:15:52;;;;;;;;;;;8.50;40.70;;;7.16;43.07;101847.59;8347384;28;20003;-83
2022/04/18 06:20:16;;;;;;;;;;;8.70;40.50;;;7.31;43.25;101838.56;8341500;28;20528;-82
2022/04/18 06:24:38;;;;;;;;;;;9.00;40.20;;;7.34;43.33;101807.31;8347213;28;19921;-83
2022/04/18 06:29:09;;;;;;;;;;;9.20;40.00;;;7.68;43.38;101837.69;8344157;28;20550;-83
2022/04/18 06:33:36;;;;;;;;;;;9.50;39.80;;;7.87;43.51;101838.06;8344693;28;20003;-85
2022/04/18 06:38:01;;;;;;;;;;;9.70;39.90;;;8.00;43.10;101828.19;8345468;28;20641;-85
2022/04/18 06:42:50;;;;;;;;;;;9.90;40.50;;;8.17;43.02;101831.19;8333245;28;20003;-83
2022/04/18 06:47:19;;;;;;;;;;;10.00;41.30;;;8.36;43.37;101834.97;8342908;28;19999;-85
2022/04/18 06:51:56;;;;;;;;;;;10.10;40.60;;;8.56;42.97;101841.41;8347391;28;19921;-84
2022/04/18 06:56:58;;;;;;;;;;;10.40;40.60;;;8.68;43.29;101833.25;8350715;28;20007;-84
2022/04/18 07:01:27;;;;;;;;;;;10.50;39.60;;;8.74;43.23;101811.38;8347381;28;19917;-82
2022/04/18 07:05:49;;;;;;;;;;;10.70;40.70;;;8.88;43.31;101809.19;8348911;28;20444;-83
2022/04/18 07:10:10;;;;;;;;;;;10.80;40.20;;;9.01;43.59;101807.06;8337308;28;20388;-85
2022/04/18 07:14:36;;;;;;;;;;;10.90;39.80;;;9.24;43.45;101816.78;8346011;28;20015;-83
2022/04/18 07:18:58;;;;;;;;;;;11.10;39.90;;;9.31;43.49;101803.47;8351127;28;19995;-86
2022/04/18 07:23:19;;;;;;;;;;;11.30;40.10;;;9.65;43.91;101838.03;8336076;28;20011;-83
2022/04/18 07:27:50;;;;;;;;;;;11.40;41.00;;;9.83;43.73;101833.94;8338547;28;19920;-84
2022/04/18 07:32:12;;;;;;;;;;;11.50;40.60;;;9.86;43.96;101802.53;8351092;28;20371;-83
2022/04/18 07:36:34;;;;;;;;;;;11.80;39.80;;;10.14;43.96;101813.69;8348612;28;20472;-83
2022/04/18 07:40:56;;;;;;;;;;;11.90;40.10;;;10.43;43.66;101816.19;8348636;28;19995;-83
2022/04/18 07:45:20;;;;;;;;;;;11.90;40.50;;;10.62;44.15;101798.94;8350398;28;20472;-84
2022/04/18 07:49:42;;;;;;;;;;;12.40;39.80;;;10.93;43.63;101816.03;8333448;28;19921;-84
2022/04/18 07:54:06;;;;;;;;;;;12.60;40.10;;;11.03;43.69;101786.84;8314157;28;20015;-84
2022/04/18 07:58:29;;;;;;;;;;;12.90;40.20;;;11.46;43.85;101813.88;8331846;28;19935;-85
2022/04/18 08:02:52;;;;;;;;;;;13.20;40.10;;;11.47;43.46;101791.16;8349025;28;20007;-83
2022/04/18 08:07:26;;;;;;;;;;;13.40;40.00;;;11.91;43.65;101823.34;8330198;28;19917;-83
2022/04/18 08:11:49;;;;;;;;;;;13.60;39.60;;;12.05;43.44;101799.19;8352989;28;19939;-82
2022/04/18 08:16:18;;;;;;;;;;;13.80;39.60;;;12.31;43.16;101811.13;8331546;28;19989;-84
2022/04/18 08:20:48;;;;;;;;;;;14.10;39.40;;;12.45;43.18;101802.63;8351190;28;20441;-80
2022/04/18 08:25:10;;;;;;;;;;;14.30;39.20;;;12.71;42.97;101811.03;8327145;28;20034;-80
2022/04/18 08:30:05;;;;;;;;;;;14.40;39.00;;;12.90;43.11;101798.75;8361273;28;19931;-80
2022/04/18 08:34:34;;;;;;;;;;;14.70;39.10;;;13.01;43.12;101774.66;8346024;28;20004;-83
2022/04/18 08:38:57;;;;;;;;;;;14.80;38.60;;;13.36;43.24;101795.72;8333667;28;20004;-83
2022/04/18 08:43:35;;;;;;;;;;;15.10;37.70;;;13.42;42.77;101767.41;8335219;28;20007;-83
2022/04/18 08:52:45;;;;;;;;;;;15.50;38.00;;;13.88;42.79;101782.56;8335240;28;19920;-83
2022/04/18 08:57:23;;;;;;;;;;;15.60;36.20;;;14.06;42.39;101792.09;8352483;28;20452;-82
2022/04/18 09:01:50;;;;;;;;;;;15.80;37.00;;;14.05;42.42;101763.31;8352242;28;20005;-83
2022/04/18 09:06:17;;;;;;;;;;;15.90;36.90;;;14.19;42.03;101765.19;8324923;28;20015;-83
2022/04/18 09:10:48;;;;;;;;;;;16.10;36.60;;;14.39;42.32;101771.06;8330672;28;19936;-83
2022/04/18 09:15:10;;;;;;;;;;;16.00;35.70;;;14.34;41.79;101735.47;8330549;28;20015;-83
2022/04/18 09:19:35;;;;;;;;;;;16.20;36.90;;;14.65;41.88;101763.56;8331155;28;20134;-83
2022/04/18 09:23:59;;;;;;;;;;;16.30;36.70;;;14.59;41.83;101727.09;8326406;28;19920;-83
2022/04/18 09:28:34;;;;;;;;;;;16.50;36.70;;;14.91;41.68;101745.47;8327311;28;20027;-82
2022/04/18 09:33:06;;;;;;;;;;;16.70;35.90;;;15.00;41.79;101731.78;8315747;28;20023;-83
2022/04/18 09:37:33;;;;;;;;;;;16.80;34.90;;;14.98;41.46;101720.50;8332256;28;19940;-83
2022/04/18 09:42:07;;;;;;;;;;;16.80;36.30;;;15.17;41.64;101718.47;8328617;28;19923;-82
2022/04/18 09:46:49;;;;;;;;;;;17.00;36.20;;;15.36;41.41;101733.19;8338291;28;20003;-84
2022/04/18 09:51:34;;;;;;;;;;;17.10;35.40;;;15.52;41.42;101720.81;8329966;28;19927;-84
2022/04/18 09:56:07;;;;;;;;;;;17.20;35.90;;;15.65;41.06;101710.41;8331214;28;20011;-83
2022/04/18 10:00:29;;;;;;;;;;;17.40;34.90;;;15.86;41.23;101713.53;8326539;28;20580;-84
2022/04/18 10:04:52;;;;;;;;;;;17.50;35.90;;;16.00;41.23;101710.06;8324466;28;20296;-83
2022/04/18 10:09:15;;;;;;;;;;;17.70;35.00;;;16.10;41.23;101698.84;8340854;28;20003;-84
2022/04/18 10:13:38;;;;;;;;;;;18.00;35.30;;;16.24;40.87;101703.22;8315555;28;19927;-86
2022/04/18 10:18:03;;;;;;;;;;;17.90;34.40;;;16.20;40.96;101680.63;8325684;28;20007;-83
2022/04/18 10:22:57;;;;;;;;;;;18.00;35.40;;;16.35;40.56;101694.66;8320447;28;19917;-80
2022/04/18 10:27:35;;;;;;;;;;;18.00;35.40;;;16.32;40.58;101685.13;8326292;28;19928;-81
2022/04/18 10:32:00;;;;;;;;;;;18.10;34.30;;;16.34;40.19;101679.78;8327975;28;19931;-82
2022/04/18 10:36:26;;;;;;;;;;;18.10;35.90;;;16.38;40.21;101679.47;8326609;28;20300;-82
2022/04/18 10:40:47;;;;;;;;;;;18.10;35.00;;;16.48;40.07;101678.88;8342912;28;20383;-83
2022/04/18 10:45:10;;;;;;;;;;;18.10;35.10;;;16.45;40.24;101663.28;8314449;28;19920;-81
2022/04/18 10:49:33;;;;;;;;;;;18.20;35.30;;;16.61;39.90;101677.16;8325506;28;19952;-81
2022/04/18 10:54:13;;;;;;;;;;;18.30;33.90;;;16.64;39.88;101666.41;8345375;28;20633;-81
2022/04/18 10:58:35;;;;;;;;;;;18.30;33.00;;;16.64;40.15;101655.84;8353762;28;19924;-81
2022/04/18 11:02:57;;;;;;;;;;;18.30;34.90;;;16.76;40.24;101649.75;8329585;28;19921;-82
2022/04/18 11:07:19;;;;;;;;;;;18.40;34.80;;;16.77;40.04;101622.47;8328224;28;19925;-83
2022/04/18 11:12:01;;;;;;;;;;;18.50;34.50;;;17.04;39.97;101637.38;8324725;28;19931;-81
2022/04/18 11:16:23;;;;;;;;;;;18.60;32.90;;;17.16;39.68;101649.75;8317686;28;19926;-81
2022/04/18 11:20:44;;;;;;;;;;;18.70;33.70;;;17.15;39.69;101636.66;8341494;28;19927;-81
2022/04/18 11:25:11;;;;;;;;;;;18.80;34.60;;;17.09;39.03;101640.53;8342293;28;19920;-80
2022/04/18 11:29:33;;;;;;;;;;;18.80;34.80;;;17.02;39.33;101599.69;8337257;28;19925;-81
2022/04/18 11:33:57;;;;;;;;;;;18.70;34.90;;;17.17;39.54;101606.53;8353848;28;20020;-81
2022/04/18 11:38:25;;;;;;;;;;;18.90;34.40;;;17.37;39.46;101614.91;8325556;28;19927;-81
2022/04/18 11:42:47;;;;;;;;;;;19.00;34.30;;;17.46;39.51;101601.03;8338253;28;20293;-88
2022/04/18 11:47:22;;;;;;;;;;;19.00;33.80;;;17.59;39.54;101601.03;8302547;28;20022;-81
2022/04/18 11:51:46;;;;;;;;;;;19.10;32.80;;;17.63;39.41;101595.44;8332469;28;19920;-90
2022/04/18 11:56:08;;;;;;;;;;;19.30;33.10;;;17.77;39.14;101609.44;8334842;28;19925;-83
2022/04/18 12:10:28;;;;;;;;;;;19.40;32.60;;;17.87;39.00;101573.50;8341809;28;19925;-83
2022/04/18 12:14:49;;;;;;;;;;;19.50;33.60;;;18.00;39.04;101579.59;8356341;28;19925;-83
2022/04/18 12:19:15;;;;;;;;;;;19.50;34.20;;;17.85;38.46;101549.00;8361250;28;20023;-83
2022/04/18 12:23:37;;;;;;;;;;;19.60;34.80;;;17.89;38.26;101556.56;8342405;28;20441;-83
2022/04/18 12:28:04;;;;;;;;;;;19.60;32.90;;;17.92;38.38;101559.00;8346592;28;19923;-84
2022/04/18 12:32:26;;;;;;;;;;;19.50;34.40;;;17.84;38.60;101534.94;8318509;28;19936;-84
2022/04/18 12:37:01;;;;;;;;;;;19.50;33.60;;;18.06;38.56;101530.72;8332506;28;19938;-82
2022/04/18 12:41:26;;;;;;;;;;;19.60;34.60;;;18.20;38.67;101529.69;8318614;28;20011;-82
2022/04/18 12:45:55;;;;;;;;;;;19.70;32.60;;;18.17;38.54;101506.97;8315409;28;19916;-82
2022/04/18 12:50:17;;;;;;;;;;;19.80;33.30;;;18.24;38.27;101536.44;8345917;28;19925;-81
2022/04/18 12:54:44;;;;;;;;;;;19.70;33.10;;;18.20;38.46;101519.09;8336722;28;19925;-81
2022/04/18 12:59:09;;;;;;;;;;;19.70;33.40;;;18.28;38.43;101517.59;8338203;28;19925;-81
2022/04/18 13:03:43;;;;;;;;;;;19.80;33.50;;;18.41;38.48;101512.22;8335375;28;19917;-81
2022/04/18 13:08:05;;;;;;;;;;;19.70;32.80;;;18.47;38.31;101519.69;8337814;28;19921;-82
2022/04/18 13:12:30;;;;;;;;;;;19.90;33.00;;;18.46;38.20;101494.19;8330575;28;19927;-81
2022/04/18 13:17:10;;;;;;;;;;;20.00;33.00;;;18.59;38.26;101496.75;8311577;28;19923;-81
2022/04/18 13:21:32;;;;;;;;;;;20.00;34.00;;;18.47;38.00;101471.22;8357357;28;19921;-81
2022/04/18 13:25:53;;;;;;;;;;;20.10;34.50;;;18.54;37.86;101491.78;8359780;28;19924;-81
2022/04/18 13:30:15;;;;;;;;;;;20.10;33.10;;;18.51;37.97;101467.41;8346324;28;19920;-81
2022/04/18 13:34:37;;;;;;;;;;;20.10;33.70;;;18.55;38.18;101469.69;8349964;28;20029;-81
2022/04/18 13:38:59;;;;;;;;;;;20.10;34.50;;;18.60;37.99;101468.47;8338608;28;19925;-81
2022/04/18 13:43:21;;;;;;;;;;;20.10;32.40;;;18.66;38.06;101466.22;8355464;28;19917;-81
2022/04/18 13:47:43;;;;;;;;;;;20.20;32.20;;;18.66;37.88;101450.34;8352748;28;19917;-81
2022/04/18 13:52:09;;;;;;;;;;;20.10;33.00;;;18.75;37.68;101462.03;8360467;28;20401;-80
2022/04/18 13:56:31;;;;;;;;;;;20.20;32.90;;;18.74;37.69;101436.50;8345464;28;20020;-81
2022/04/18 14:00:52;;;;;;;;;;;20.20;33.20;;;18.72;37.73;101422.56;8328604;28;20296;-81
2022/04/18 14:05:14;;;;;;;;;;;20.40;32.40;;;18.77;37.69;101433.66;8315432;28;20356;-82
2022/04/18 14:09:36;;;;;;;;;;;20.30;30.90;;;18.67;37.56;101408.84;8322779;28;19925;-81
2022/04/18 14:13:57;;;;;;;;;;;20.20;33.50;;;18.82;37.46;101430.63;8330552;28;19924;-82
2022/04/18 14:22:59;;;;;;;;;;;20.20;32.20;;;18.81;37.35;101415.72;8337834;28;19921;-81
2022/04/18 14:27:21;;;;;;;;;;;20.20;32.90;;;18.86;37.36;101416.22;8337412;28;19921;-83
2022/04/18 14:31:43;;;;;;;;;;;20.30;32.60;;;18.77;37.42;101393.97;8320280;28;19928;-82
2022/04/18 14:36:07;;;;;;;;;;;20.30;32.50;;;18.85;36.93;101402.16;8332599;28;19921;-82
2022/04/18 14:40:29;;;;;;;;;;;20.20;30.90;;;18.84;37.17;101392.50;8308853;28;20435;-82
2022/04/18 14:44:54;;;;;;;;;;;20.30;31.60;;;18.85;36.96;101399.50;8334498;28;20392;-82
2022/04/18 14:49:15;;;;;;;;;;;20.30;30.00;;;18.85;36.93;101399.50;8306941;28;19927;-82
2022/04/18 14:53:37;;;;;;;;;;;20.30;30.60;;;18.84;37.08;101387.22;8329718;28;19934;-83
2022/04/18 14:57:59;;;;;;;;;;;20.20;32.00;;;18.86;37.03;101387.09;8319209;28;19921;-83
2022/04/18 15:02:21;;;;;;;;;;;20.20;30.50;;;18.64;36.77;101348.25;8333295;28;19927;-82
2022/04/18 16:06:17;;;;;;;4.50;1.27;;;22.60;45.90;;;24.64;51.37;101365.88;8319419;27;20467;-68
2022/04/18 16:10:19;;;;;;;0.70;0.70;;;24.20;58.20;;;25.48;42.86;101369.41;8258663;28;20054;-74
2022/04/18 16:14:22;;;;;;;0.70;0.70;;;25.10;47.60;;;26.07;41.11;101371.09;8253080;28;20685;-68
2022/04/18 16:18:24;;;;;;;0.68;0.68;;;25.90;45.70;;;26.46;39.87;101363.94;8332104;28;20475;-73
2022/04/18 16:22:25;;;;;;;0.68;0.63;;;26.50;44.30;;;26.75;39.38;101365.16;8295454;28;20078;-72
2022/04/18 16:31:58;;;;;;;0.90;0.80;;;27.40;41.60;;;24.77;36.74;101340.56;8424034;27;20878;-81
2022/04/18 16:36:00;;;;;;;0.90;0.90;;;27.20;32.40;;;23.29;36.77;101349.44;8272114;23;20093;-81
2022/04/18 16:40:02;;;;;;;1.73;0.95;;;26.70;31.00;;;21.98;36.63;101327.38;8257744;28;20435;-82
2022/04/18 16:48:24;;;;;;;2.85;2.45;;;24.90;30.10;;;20.33;36.50;101343.94;8289743;28;20038;-81
2022/04/18 16:52:25;;;;;;;1.30;1.20;;;24.00;30.40;;;19.69;36.18;101341.47;8288563;28;20546;-81
2022/04/18 16:56:27;;;;;;;1.08;0.90;;;23.10;30.40;;;19.20;36.07;101342.88;8273362;28;20045;-86
2022/04/18 17:00:29;;;;;;;1.20;1.10;;;22.40;30.60;;;18.66;35.92;101311.91;8280730;28;20121;-82
2022/04/18 17:04:37;;;;;;;0.95;0.85;;;21.80;30.90;;;18.45;35.55;101331.19;8285148;28;20133;-85
2022/04/18 17:08:42;;;;;;;1.33;1.23;;;21.30;31.10;;;17.98;35.59;101301.34;8270000;28;20069;-83
2022/04/18 17:12:44;;;;;;;0.85;0.80;;;20.80;31.00;;;17.90;35.51;101324.88;8255495;28;20086;-83
2022/04/18 17:16:45;;;;;;;1.60;1.42;;;20.50;31.30;;;17.57;35.59;101302.69;8269275;28;20153;-83
2022/04/18 17:20:47;;;;;;;1.15;1.02;;;20.20;31.60;;;17.51;35.46;101329.56;8258146;28;20137;-83
2022/04/18 17:24:48;;;;;;;6.93;2.92;;;19.90;31.60;;;17.39;35.60;101330.44;8255489;28;20035;-83
2022/04/18 17:28:50;;;;;;;1.88;1.30;;;19.70;31.80;;;17.20;35.41;101320.41;8261541;28;20035;-82
2022/04/18 17:32:52;;;;;;;13.57;6.25;;;19.50;31.80;;;17.01;35.55;101310.38;8256868;28;20041;-83
2022/04/18 17:36:56;;;;;;;5.60;3.20;;;19.30;32.00;;;16.76;35.34;101279.63;8262041;28;20732;-83
2022/04/18 17:40:59;;;;;;;2.15;1.75;;;19.10;32.00;;;16.68;35.57;101268.78;8288731;28;20061;-83
2022/04/18 17:45:01;;;;;;;1.83;1.35;;;19.00;32.20;;;16.86;35.57;101324.69;8276974;28;20053;-83
2022/04/18 17:49:05;;;;;;;1.40;1.30;;;19.00;32.20;;;16.78;35.67;101328.72;8263315;28;20042;-82
2022/04/18 17:55:48;;;;;;;1.30;1.20;;;19.00;32.40;;;16.59;35.69;101301.94;8261034;28;20133;-83
2022/04/18 17:57:28;;;;;;;2.50;1.30;;;18.80;32.30;;;16.68;35.67;101324.16;8277615;28;20574;-83
2022/04/18 18:01:31;;;;;;;6.00;3.00;;;18.70;32.60;;;16.63;35.53;101321.00;8257554;28;20460;-83
2022/04/18 18:05:33;;;;;;;17.40;6.72;;;18.70;32.80;;;16.54;35.87;101314.59;8263599;28;20533;-82
2022/04/18 18:09:35;;;;;;;5.57;3.55;;;18.60;32.70;;;16.55;35.60;101311.00;8257374;28;20038;-83
2022/04/18 18:13:38;;;;;;;4.35;2.63;;;18.50;32.60;;;16.35;35.52;101286.06;8261067;28;20034;-83
2022/04/18 18:17:40;;;;;;;3.97;2.10;;;18.50;32.70;;;16.42;35.70;101310.19;8261613;28;20031;-82
2022/04/18 18:21:42;;;;;;;3.13;1.58;;;18.50;32.50;;;16.31;35.60;101305.66;8273567;28;20144;-84
2022/04/18 18:25:43;;;;;;;1.45;1.35;;;18.40;32.50;;;16.23;35.64;101308.00;8260384;28;20118;-83
2022/04/18 18:29:45;;;;;;;1.50;1.40;;;18.40;32.60;;;16.18;35.63;101307.50;8262399;28;20048;-83
2022/04/18 18:33:46;;;;;;;1.65;1.55;;;18.30;32.60;;;15.77;35.79;101280.41;8273797;28;20030;-82
2022/04/18 18:37:48;;;;;;;5.25;2.63;;;18.20;32.80;;;15.59;35.81;101264.03;8261634;28;20040;-82
2022/04/18 18:41:50;;;;;;;1.85;1.70;;;18.10;32.80;;;15.31;35.67;101259.78;8255683;28;20038;-85
2022/04/18 18:45:51;;;;;;;1.83;1.60;;;18.00;32.60;;;15.42;35.85;101325.72;8258768;28;20038;-82
2022/04/18 18:52:23;;;;;;;1.90;1.70;;;17.70;32.60;;;15.29;35.50;101337.16;8259977;28;20034;-83
2022/04/18 18:54:16;;;;;;;2.15;2.00;;;17.70;32.60;;;15.13;35.92;101340.78;8272895;28;20446;-83
2022/04/18 18:58:19;;;;;;;1.63;1.52;;;17.20;32.60;;;14.98;35.97;101334.69;8262636;28;20125;-83
2022/04/18 19:02:21;;;;;;;2.55;2.35;;;17.20;32.80;;;14.97;36.01;101347.94;8261354;28;20125;-82
2022/04/18 19:06:22;;;;;;;2.55;1.90;;;17.10;32.90;;;14.61;35.87;101299.41;8261421;28;20125;-82
2022/04/18 19:10:24;;;;;;;3.05;1.27;;;17.00;33.00;;;14.54;35.87;101293.66;8254366;28;20045;-82
2022/04/18 19:14:27;;;;;;;4.88;3.42;;;16.90;33.00;;;14.46;35.95;101310.81;8249255;28;20033;-82
2022/04/18 19:27:09;;;;;;;1.13;1.05;;;16.70;33.20;;;14.41;36.05;101331.28;8257532;28;20466;-80
2022/04/18 19:31:10;;;;;;;1.70;1.60;;;16.60;33.20;;;14.37;36.15;101339.34;8257061;28;20034;-81
2022/04/18 19:35:12;;;;;;;1.77;1.67;;;16.50;33.20;;;14.07;36.15;101300.03;8273580;28;20118;-82
2022/04/18 19:39:13;;;;;;;2.45;2.05;;;16.40;33.30;;;14.13;36.32;101315.44;8272984;28;20123;-82
2022/04/18 19:43:16;;;;;;;2.08;1.90;;;16.40;33.40;;;14.17;36.14;101332.66;8240360;28;20145;-82
2022/04/18 19:47:17;;;;;;;2.42;2.22;;;16.30;33.30;;;14.09;36.20;101337.53;8274733;28;20121;-82
2022/04/18 19:51:25;;;;;;;2.53;2.33;;;16.10;33.70;;;13.77;36.15;101289.63;8272773;28;20704;-82
2022/04/18 19:55:27;;;;;;;1.83;1.73;;;16.10;33.30;;;13.77;36.42;101292.25;8257762;28;20030;-83
2022/04/18 19:59:29;;;;;;;1.00;0.93;;;16.10;33.30;;;13.87;36.25;101318.75;8252632;28;20440;-82
2022/04/18 20:03:30;;;;;;;4.05;1.00;;;16.10;33.20;;;13.69;36.32;101326.81;8254522;28;20049;-83
2022/04/18 20:07:33;;;;;;;1.08;0.98;;;15.90;33.10;;;13.47;36.28;101335.09;8258494;28;20149;-83
2022/04/18 20:11:36;;;;;;;0.73;0.73;;;15.80;33.00;;;12.80;36.27;101247.94;8272445;28;20442;-83
2022/04/18 20:15:40;;;;;;;1.00;0.95;;;15.70;33.50;;;13.16;36.46;101333.31;8268393;28;20570;-82
2022/04/18 20:19:42;;;;;;;1.00;0.80;;;15.30;33.00;;;13.01;36.29;101321.91;8273151;28;20130;-82
2022/04/18 20:23:44;;;;;;;0.68;0.45;;;15.30;33.20;;;12.91;36.52;101318.13;8259370;28;20550;-81
2022/04/18 20:27:45;;;;;;;9.43;2.08;;;15.20;33.30;;;12.87;36.53;101329.69;8274137;28;20044;-82
2022/04/18 20:31:47;;;;;;;1.25;0.70;;;15.10;33.40;;;12.56;36.46;101291.22;8259043;28;20064;-82
2022/04/18 20:35:49;;;;;;;0.80;0.70;;;15.00;33.40;;;12.41;36.62;101287.66;8259398;28;20113;-82
2022/04/18 20:39:50;;;;;;;0.65;0.65;;;14.80;33.40;;;12.61;36.74;101333.75;8242093;28;20710;-82
2022/04/18 20:43:52;;;;;;;0.88;0.80;;;14.80;33.50;;;12.54;36.50;101335.00;8258759;28;20145;-81
2022/04/18 20:47:54;;;;;;;0.98;0.85;;;14.80;33.50;;;12.47;36.65;101331.00;8251282;28;20113;-81
2022/04/18 20:51:55;;;;;;;0.70;0.70;;;14.70;33.50;;;12.44;36.84;101318.91;8237521;28;20039;-81
2022/04/18 21:00:19;;;;;;;0.95;0.80;;;14.60;33.60;;;12.21;37.04;101304.44;8253086;28;20496;-81
2022/04/18 21:04:23;;;;;;;0.75;0.75;;;14.50;33.70;;;12.31;37.10;101323.97;8241234;28;20072;-82
2022/04/18 21:08:26;;;;;;;0.73;0.73;;;14.50;33.80;;;12.17;36.64;101302.91;8258091;28;20497;-82
2022/04/18 21:12:27;;;;;;;1.92;0.93;;;14.50;33.80;;;11.85;36.83;101267.88;8251255;28;20414;-81